Time;durP1;ratioP1;P1;durP2;ratioP2;P2;SDS_P1;SDS_P2;PMS_P1;PMS_P2;Temp;Humidity;BMP_temperature;BMP_pressure;BME280_temperature;BME280_humidity;BME280_pressure;Samples;Min_cycle;Max_cycle;Signal;HPM_P1;HPM_P2
2022/11/27 00:02:43;;;;;;;6.40;5.80;;;4.40;99.90;;;;;;6182438;28;20478;-65
2022/11/27 00:05:56;;;;;;;6.67;6.07;;;4.40;99.90;;;;;;6181738;28;20548;-63
2022/11/27 00:09:01;;;;;;;7.13;5.50;;;4.40;99.90;;;;;;6181001;28;20488;-63
2022/11/27 00:12:05;;;;;;;9.60;6.67;;;4.40;99.90;;;;;;6181511;28;20473;-63
2022/11/27 00:15:08;;;;;;;9.47;8.57;;;4.40;99.90;;;;;;6184819;28;20473;-63
2022/11/27 00:18:18;;;;;;;9.63;8.70;;;4.30;99.90;;;;;;6180224;28;20628;-61
2022/11/27 00:21:24;;;;;;;8.87;6.70;;;4.30;99.90;;;;;;6180440;28;20788;-66
2022/11/27 00:24:28;;;;;;;7.40;5.37;;;4.30;99.90;;;;;;6181646;28;20566;-63
2022/11/27 00:27:31;;;;;;;5.93;5.43;;;4.20;99.90;;;;;;6180961;28;20470;-62
2022/11/27 00:30:34;;;;;;;4.93;4.53;;;4.20;99.90;;;;;;6176187;28;20996;-62
2022/11/27 00:33:37;;;;;;;10.73;7.67;;;4.20;99.90;;;;;;6176465;28;20992;-63
2022/11/27 00:36:42;;;;;;;11.13;7.67;;;4.10;99.90;;;;;;6177418;28;20488;-63
2022/11/27 00:39:50;;;;;;;23.67;20.40;;;4.10;99.90;;;;;;6176553;28;20480;-62
2022/11/27 00:42:53;;;;;;;12.93;11.43;;;4.10;99.90;;;;;;6177969;28;20485;-62
2022/11/27 00:45:56;;;;;;;10.13;8.33;;;4.10;99.90;;;;;;6178241;28;20486;-62
2022/11/27 00:49:02;;;;;;;8.53;7.63;;;4.10;99.90;;;;;;6177439;28;20964;-62
2022/11/27 00:52:06;;;;;;;11.77;7.10;;;4.10;99.90;;;;;;6178628;28;20489;-63
2022/11/27 00:55:10;;;;;;;9.83;7.80;;;4.00;99.90;;;;;;6176330;28;20486;-63
2022/11/27 00:58:13;;;;;;;7.50;6.33;;;4.00;99.90;;;;;;6177743;28;21035;-63
2022/11/27 01:01:19;;;;;;;9.07;6.57;;;4.00;99.90;;;;;;6178269;28;20521;-63
2022/11/27 01:04:22;;;;;;;8.03;7.00;;;4.00;99.90;;;;;;6177916;28;20474;-60
2022/11/27 01:07:27;;;;;;;7.70;6.90;;;4.00;99.90;;;;;;6173485;28;20908;-60
2022/11/27 01:10:31;;;;;;;7.23;6.17;;;4.10;99.90;;;;;;6178225;28;20482;-60
2022/11/27 01:13:36;;;;;;;7.67;6.10;;;4.00;99.90;;;;;;6177940;28;20589;-60
2022/11/27 01:16:39;;;;;;;7.97;5.70;;;4.10;99.90;;;;;;6177462;28;20485;-60
2022/11/27 01:19:45;;;;;;;6.00;5.33;;;4.00;99.90;;;;;;6177692;28;20570;-60
2022/11/27 01:22:49;;;;;;;5.77;4.53;;;4.00;99.90;;;;;;6177573;28;20473;-63
2022/11/27 01:25:53;;;;;;;9.27;6.00;;;4.00;99.90;;;;;;6178111;28;20469;-58
2022/11/27 01:28:57;;;;;;;5.87;4.93;;;4.10;99.90;;;;;;6177830;28;20485;-60
2022/11/27 01:32:00;;;;;;;6.97;4.80;;;4.10;99.90;;;;;;6175663;28;20971;-60
2022/11/27 01:35:04;;;;;;;6.50;5.47;;;4.10;99.90;;;;;;6177742;28;21009;-60
2022/11/27 01:38:08;;;;;;;5.60;4.97;;;4.10;99.90;;;;;;6177695;28;20470;-60
2022/11/27 01:41:15;;;;;;;6.47;4.90;;;4.20;99.90;;;;;;6176719;28;20466;-60
2022/11/27 01:44:48;;;;;;;6.07;4.80;;;4.30;99.90;;;;;;6176950;28;20470;-60
2022/11/27 01:47:55;;;;;;;7.03;5.30;;;4.40;99.90;;;;;;6176672;28;20834;-60
2022/11/27 01:50:58;;;;;;;8.23;5.83;;;4.40;99.90;;;;;;6176979;28;20970;-60
2022/11/27 01:54:02;;;;;;;7.30;6.13;;;4.40;99.90;;;;;;6176910;28;20866;-60
2022/11/27 01:57:12;;;;;;;7.00;6.00;;;4.40;99.90;;;;;;6177052;28;20469;-58
2022/11/27 02:00:17;;;;;;;5.70;5.17;;;4.30;99.90;;;;;;6176817;28;20482;-59
2022/11/27 02:03:20;;;;;;;7.63;5.40;;;4.40;99.90;;;;;;6177797;28;20474;-59
2022/11/27 02:06:24;;;;;;;9.63;7.20;;;4.40;99.90;;;;;;6177677;28;20482;-59
2022/11/27 02:09:30;;;;;;;9.10;8.17;;;4.40;99.90;;;;;;6177344;28;20544;-59
2022/11/27 02:12:40;;;;;;;9.23;6.57;;;4.50;99.90;;;;;;6177703;28;20935;-59
2022/11/27 02:15:47;;;;;;;6.57;5.97;;;4.50;99.90;;;;;;6177565;28;20478;-59
2022/11/27 02:18:57;;;;;;;10.87;7.80;;;4.50;99.90;;;;;;6177095;28;20493;-60
2022/11/27 02:22:06;;;;;;;7.90;7.10;;;4.50;99.90;;;;;;6177167;28;20759;-60
2022/11/27 02:25:19;;;;;;;7.30;6.30;;;4.50;99.90;;;;;;6177603;28;20750;-59
2022/11/27 02:28:42;;;;;;;7.23;6.53;;;4.50;99.90;;;;;;6177374;28;20585;-59
2022/11/27 02:31:55;;;;;;;7.03;5.60;;;4.50;99.90;;;;;;6177075;28;20537;-59
2022/11/27 02:35:04;;;;;;;9.73;6.50;;;4.50;99.90;;;;;;6176005;28;20969;-59
2022/11/27 02:38:10;;;;;;;10.07;7.17;;;4.40;99.90;;;;;;6175837;28;20486;-60
2022/11/27 02:41:17;;;;;;;9.43;8.37;;;4.40;99.90;;;;;;6175413;28;20969;-59
2022/11/27 02:44:21;;;;;;;10.43;7.20;;;4.40;99.90;;;;;;6175434;28;20975;-60
2022/11/27 02:47:28;;;;;;;8.50;6.47;;;4.30;99.90;;;;;;6175695;28;20478;-60
2022/11/27 02:50:34;;;;;;;11.90;6.90;;;4.30;99.90;;;;;;6176771;28;20474;-60
2022/11/27 02:53:42;;;;;;;6.30;5.80;;;4.20;99.90;;;;;;6176896;28;20796;-60
2022/11/27 02:56:47;;;;;;;7.23;6.03;;;4.20;99.90;;;;;;6177003;28;20477;-60
2022/11/27 02:59:53;;;;;;;6.30;5.57;;;4.20;99.90;;;;;;6176382;28;20477;-60
2022/11/27 03:03:01;;;;;;;8.43;7.60;;;4.20;99.90;;;;;;6176677;28;20957;-60
2022/11/27 03:06:10;;;;;;;15.07;10.97;;;4.10;99.90;;;;;;6176494;28;20558;-60
2022/11/27 03:09:18;;;;;;;15.47;13.87;;;4.10;99.90;;;;;;6175995;28;20938;-60
2022/11/27 03:12:21;;;;;;;15.10;13.83;;;4.10;99.90;;;;;;6176465;28;20537;-60
2022/11/27 03:15:28;;;;;;;8.10;7.40;;;4.10;99.90;;;;;;6176246;28;20854;-60
2022/11/27 03:18:39;;;;;;;6.00;5.47;;;4.10;99.90;;;;;;6176531;28;20490;-60
2022/11/27 03:21:45;;;;;;;6.27;4.47;;;4.10;99.90;;;;;;6176732;28;20484;-60
2022/11/27 03:24:49;;;;;;;5.77;5.27;;;4.20;99.90;;;;;;6176371;28;20825;-60
2022/11/27 03:27:57;;;;;;;5.50;4.20;;;4.20;99.90;;;;;;6176314;28;20489;-60
2022/11/27 03:31:00;;;;;;;7.10;5.90;;;4.10;99.90;;;;;;6178397;28;20490;-60
2022/11/27 03:34:05;;;;;;;5.70;3.50;;;4.10;99.90;;;;;;6181057;28;20517;-60
2022/11/27 03:37:08;;;;;;;4.57;3.13;;;4.20;99.90;;;;;;6180868;28;20462;-60
2022/11/27 03:40:13;;;;;;;4.60;4.17;;;4.20;99.90;;;;;;6181292;28;20517;-60
2022/11/27 03:43:21;;;;;;;3.87;3.50;;;4.20;99.90;;;;;;6181013;28;20782;-60
2022/11/27 03:46:32;;;;;;;6.23;5.73;;;4.20;99.90;;;;;;6181423;28;20529;-60
2022/11/27 03:49:47;;;;;;;8.93;8.03;;;4.20;99.90;;;;;;6180695;28;20481;-60
2022/11/27 03:52:58;;;;;;;7.80;7.00;;;4.20;99.90;;;;;;6181104;28;20481;-60
2022/11/27 03:56:07;;;;;;;5.93;5.40;;;4.20;99.90;;;;;;6180841;28;20997;-60
2022/11/27 03:59:15;;;;;;;6.37;5.60;;;4.10;99.90;;;;;;6180598;28;20517;-60
2022/11/27 04:02:30;;;;;;;4.23;3.83;;;4.10;99.90;;;;;;6180857;28;20485;-60
2022/11/27 04:05:34;;;;;;;5.23;4.73;;;4.10;99.90;;;;;;6156874;28;20959;-60
2022/11/27 04:08:38;;;;;;;5.73;3.97;;;4.00;99.90;;;;;;6156524;28;20533;-60
2022/11/27 04:11:41;;;;;;;4.43;4.03;;;4.00;99.90;;;;;;6156192;28;20483;-60
2022/11/27 04:14:44;;;;;;;5.33;3.90;;;3.90;99.90;;;;;;6156156;28;20959;-60
2022/11/27 04:17:47;;;;;;;3.63;3.33;;;3.80;99.90;;;;;;6156132;28;20838;-60
2022/11/27 04:20:52;;;;;;;8.67;4.90;;;3.90;99.90;;;;;;6147289;28;20521;-60
2022/11/27 04:23:55;;;;;;;4.43;3.73;;;3.80;99.90;;;;;;6156052;28;20479;-60
2022/11/27 04:26:58;;;;;;;4.77;4.30;;;3.80;99.90;;;;;;6156120;28;20490;-60
2022/11/27 04:30:01;;;;;;;5.03;3.60;;;3.80;99.90;;;;;;6155825;28;20975;-60
2022/11/27 04:33:04;;;;;;;5.30;4.77;;;3.80;99.90;;;;;;6155954;28;20482;-60
2022/11/27 04:36:09;;;;;;;5.70;4.23;;;3.80;99.90;;;;;;6155939;28;20541;-60
2022/11/27 04:39:13;;;;;;;6.20;4.57;;;3.80;99.90;;;;;;6155598;28;20486;-60
2022/11/27 04:42:16;;;;;;;4.50;4.10;;;3.80;99.90;;;;;;6155549;28;20510;-60
2022/11/27 04:45:19;;;;;;;3.80;3.50;;;3.70;99.90;;;;;;6155951;28;20483;-60
2022/11/27 04:48:22;;;;;;;4.90;4.40;;;3.80;99.90;;;;;;6155786;28;20537;-60
2022/11/27 04:51:27;;;;;;;5.07;3.90;;;3.80;99.90;;;;;;6155944;28;20971;-60
2022/11/27 04:54:30;;;;;;;4.13;3.73;;;3.80;99.90;;;;;;6155289;28;20471;-60
2022/11/27 04:57:33;;;;;;;4.27;3.97;;;3.80;99.90;;;;;;6159963;28;20470;-60
2022/11/27 05:00:36;;;;;;;4.67;4.27;;;3.80;99.90;;;;;;6179128;28;20807;-60
2022/11/27 05:03:39;;;;;;;3.87;3.57;;;3.80;99.90;;;;;;6179095;28;20469;-60
2022/11/27 05:06:44;;;;;;;9.20;4.70;;;3.80;99.90;;;;;;6179176;28;20490;-60
2022/11/27 05:09:47;;;;;;;5.00;3.60;;;3.80;99.90;;;;;;6178975;28;20497;-60
2022/11/27 05:12:50;;;;;;;3.80;3.50;;;3.80;99.90;;;;;;6178780;28;20500;-60
2022/11/27 05:15:53;;;;;;;4.27;3.87;;;3.90;99.90;;;;;;6179314;28;20477;-60
2022/11/27 05:18:56;;;;;;;5.10;4.23;;;3.90;99.90;;;;;;6179014;28;20482;-60
2022/11/27 05:22:01;;;;;;;4.43;4.00;;;3.90;99.90;;;;;;6178853;28;20870;-60
2022/11/27 05:25:04;;;;;;;4.80;3.53;;;3.90;99.90;;;;;;6178872;28;20466;-60
2022/11/27 05:28:07;;;;;;;4.40;3.80;;;3.90;99.90;;;;;;6179072;28;20442;-60
2022/11/27 05:31:11;;;;;;;4.00;3.60;;;4.00;99.90;;;;;;6178786;28;20473;-60
2022/11/27 05:34:14;;;;;;;6.00;4.70;;;3.90;99.90;;;;;;6178439;28;20482;-60
2022/11/27 05:37:19;;;;;;;4.73;4.27;;;4.00;99.90;;;;;;6178369;28;20441;-60
2022/11/27 05:40:22;;;;;;;4.80;4.40;;;4.00;99.90;;;;;;6177858;28;20465;-60
2022/11/27 05:43:25;;;;;;;5.67;4.03;;;4.00;99.90;;;;;;6178775;28;20458;-60
2022/11/27 05:46:28;;;;;;;5.63;4.47;;;4.00;99.90;;;;;;6178193;28;20952;-60
2022/11/27 05:49:32;;;;;;;4.00;3.60;;;4.00;99.90;;;;;;6177766;28;20498;-60
2022/11/27 05:52:36;;;;;;;3.90;3.50;;;3.90;99.90;;;;;;6176465;28;20548;-60
2022/11/27 05:55:40;;;;;;;3.90;3.60;;;3.90;99.90;;;;;;6176617;28;20470;-60
2022/11/27 05:58:44;;;;;;;5.30;3.90;;;3.90;99.90;;;;;;6176580;28;20564;-60
2022/11/27 06:01:49;;;;;;;4.97;3.37;;;3.80;99.90;;;;;;6174263;28;20474;-60
2022/11/27 06:04:52;;;;;;;3.87;3.57;;;3.90;99.90;;;;;;6181770;28;20883;-60
2022/11/27 06:07:56;;;;;;;6.00;3.80;;;3.80;99.90;;;;;;6176391;28;20466;-60
2022/11/27 06:11:00;;;;;;;4.27;3.87;;;3.70;99.90;;;;;;6176510;28;20596;-60
2022/11/27 06:14:03;;;;;;;4.67;4.23;;;3.70;99.90;;;;;;6177751;28;20482;-60
2022/11/27 06:17:06;;;;;;;3.87;3.50;;;3.70;99.90;;;;;;6177534;28;20473;-61
2022/11/27 06:20:10;;;;;;;4.93;3.90;;;3.60;99.90;;;;;;6177697;28;20473;-60
2022/11/27 06:23:14;;;;;;;3.97;3.67;;;3.60;99.90;;;;;;6177342;28;21086;-60
2022/11/27 06:26:19;;;;;;;4.80;4.23;;;3.60;99.90;;;;;;6176923;28;20474;-60
2022/11/27 06:29:22;;;;;;;6.47;4.50;;;3.60;99.90;;;;;;6177010;28;20473;-60
2022/11/27 06:32:25;;;;;;;4.23;3.57;;;3.50;99.90;;;;;;6176996;28;20482;-60
2022/11/27 06:35:28;;;;;;;4.03;3.23;;;3.50;99.90;;;;;;6177479;28;20466;-60
2022/11/27 06:38:34;;;;;;;6.10;4.07;;;3.50;99.90;;;;;;6176678;28;20560;-60
2022/11/27 06:41:38;;;;;;;4.40;4.00;;;3.40;99.90;;;;;;6177191;28;20774;-60
2022/11/27 06:44:41;;;;;;;4.70;3.70;;;3.40;99.90;;;;;;6177107;28;20473;-60
2022/11/27 06:47:44;;;;;;;4.80;4.10;;;3.40;99.90;;;;;;6177200;28;20557;-60
2022/11/27 06:50:47;;;;;;;5.50;4.00;;;3.40;99.90;;;;;;6176912;28;20478;-60
2022/11/27 06:53:52;;;;;;;10.37;4.90;;;3.40;99.90;;;;;;6176940;28;20568;-60
2022/11/27 06:56:57;;;;;;;7.40;5.70;;;3.50;99.90;;;;;;6176824;28;20474;-60
2022/11/27 07:00:00;;;;;;;7.23;6.50;;;3.50;99.90;;;;;;6152761;28;20490;-60
2022/11/27 07:03:03;;;;;;;6.40;5.80;;;3.40;99.90;;;;;;6157449;28;20462;-60
2022/11/27 07:06:09;;;;;;;7.27;6.30;;;3.50;99.90;;;;;;6175907;28;20470;-60
2022/11/27 07:09:13;;;;;;;5.77;5.27;;;3.60;99.90;;;;;;6176399;28;20478;-61
2022/11/27 07:12:16;;;;;;;10.50;6.00;;;3.60;99.90;;;;;;6176753;28;20478;-60
2022/11/27 07:15:19;;;;;;;6.30;5.30;;;3.60;99.90;;;;;;6176221;28;20478;-60
2022/11/27 07:18:23;;;;;;;6.40;5.67;;;3.70;99.90;;;;;;6175993;28;20485;-60
2022/11/27 07:21:26;;;;;;;5.83;5.00;;;3.80;99.90;;;;;;6176452;28;20564;-60
2022/11/27 07:24:31;;;;;;;9.63;5.63;;;3.80;99.90;;;;;;6176169;28;20592;-60
2022/11/27 07:27:34;;;;;;;5.80;5.20;;;3.80;99.90;;;;;;6176482;28;20507;-60
2022/11/27 07:30:37;;;;;;;6.03;5.43;;;3.90;99.90;;;;;;6176255;28;20474;-61
2022/11/27 07:33:40;;;;;;;7.73;5.70;;;3.80;99.90;;;;;;6167335;28;20501;-60
2022/11/27 07:36:43;;;;;;;5.97;5.43;;;3.90;99.90;;;;;;6176271;28;20532;-60
2022/11/27 07:39:48;;;;;;;6.47;5.67;;;4.00;99.90;;;;;;6175993;28;20486;-60
2022/11/27 07:43:05;;;;;;;10.07;6.10;;;4.10;99.90;;;;;;6176391;28;20540;-60
2022/11/27 07:46:11;;;;;;;7.40;6.17;;;4.10;99.90;;;;;;6176514;28;20446;-59
2022/11/27 07:49:14;;;;;;;6.73;5.50;;;4.20;99.90;;;;;;6175797;28;20497;-60
2022/11/27 07:52:18;;;;;;;8.43;6.70;;;4.20;99.90;;;;;;6175858;28;20754;-60
2022/11/27 07:55:22;;;;;;;6.93;6.23;;;4.30;99.90;;;;;;6176015;28;20876;-59
2022/11/27 07:58:25;;;;;;;8.33;6.70;;;4.40;99.90;;;;;;6176077;28;20941;-59
2022/11/27 08:01:28;;;;;;;7.53;6.40;;;4.40;99.90;;;;;;6176068;28;20969;-59
2022/11/27 08:04:31;;;;;;;7.77;5.97;;;4.50;99.90;;;;;;6175354;28;20473;-60
2022/11/27 08:07:35;;;;;;;7.97;7.03;;;4.60;99.90;;;;;;6176011;28;20470;-60
2022/11/27 08:10:40;;;;;;;8.27;6.33;;;4.60;99.90;;;;;;6175348;28;20540;-60
2022/11/27 08:13:43;;;;;;;7.57;6.77;;;4.70;99.90;;;;;;6175771;28;21013;-60
2022/11/27 08:16:46;;;;;;;7.17;6.50;;;4.80;99.90;;;;;;6177230;28;20477;-60
2022/11/27 08:19:49;;;;;;;9.17;7.60;;;4.90;99.90;;;;;;6179965;28;20482;-60
2022/11/27 08:22:52;;;;;;;8.23;6.80;;;5.00;99.90;;;;;;6180272;28;20488;-60
2022/11/27 08:26:07;;;;;;;8.80;6.83;;;5.00;99.90;;;;;;6180286;28;20474;-60
2022/11/27 08:29:11;;;;;;;8.13;6.67;;;5.10;99.90;;;;;;6180005;28;20857;-60
2022/11/27 08:32:15;;;;;;;9.07;7.63;;;5.20;99.90;;;;;;6179824;28;20478;-60
2022/11/27 08:35:18;;;;;;;6.53;5.90;;;5.30;99.90;;;;;;6176081;28;20478;-60
2022/11/27 08:38:22;;;;;;;8.27;7.30;;;5.30;99.90;;;;;;6180197;28;20478;-60
2022/11/27 08:41:26;;;;;;;6.50;5.87;;;5.40;99.90;;;;;;6180096;28;20485;-60
2022/11/27 08:44:29;;;;;;;9.27;7.57;;;5.50;99.90;;;;;;6180063;28;20473;-60
2022/11/27 08:47:33;;;;;;;7.70;6.90;;;5.50;99.90;;;;;;6179675;28;20488;-60
2022/11/27 08:50:37;;;;;;;8.50;7.03;;;5.60;99.90;;;;;;6179933;28;20513;-60
2022/11/27 08:53:43;;;;;;;8.23;7.20;;;5.70;99.90;;;;;;6179416;28;20485;-60
2022/11/27 08:56:47;;;;;;;6.77;6.00;;;5.70;99.90;;;;;;6179389;28;20867;-61
2022/11/27 08:59:50;;;;;;;6.57;5.93;;;5.80;99.90;;;;;;6179250;28;20982;-60
2022/11/27 09:02:54;;;;;;;7.13;6.43;;;5.90;99.90;;;;;;6179202;28;20485;-60
2022/11/27 09:05:57;;;;;;;6.80;6.20;;;6.00;99.90;;;;;;6179321;28;20485;-63
2022/11/27 09:09:01;;;;;;;6.53;5.83;;;6.10;99.90;;;;;;6179322;28;20477;-60
2022/11/27 09:12:07;;;;;;;7.40;6.53;;;6.20;99.90;;;;;;6178981;28;20469;-60
2022/11/27 09:15:11;;;;;;;8.80;6.37;;;6.20;99.90;;;;;;6179291;28;20703;-60
2022/11/27 09:18:14;;;;;;;8.07;6.33;;;6.40;99.90;;;;;;6178726;28;20462;-60
2022/11/27 09:21:19;;;;;;;7.00;6.30;;;6.40;99.90;;;;;;6196350;28;20473;-60
2022/11/27 09:24:23;;;;;;;7.20;6.17;;;6.50;99.90;;;;;;6200485;28;20539;-60
2022/11/27 09:27:28;;;;;;;6.57;6.07;;;6.50;99.90;;;;;;6199930;28;20476;-60
2022/11/27 09:30:31;;;;;;;6.30;5.80;;;6.60;99.90;;;;;;6202039;28;20991;-60
2022/11/27 09:33:36;;;;;;;6.40;5.73;;;6.70;99.90;;;;;;6202724;28;20996;-60
2022/11/27 09:36:39;;;;;;;6.43;5.90;;;6.80;99.90;;;;;;6202641;28;20484;-60
2022/11/27 09:39:42;;;;;;;8.13;6.00;;;6.90;99.90;;;;;;6202816;28;21011;-60
2022/11/27 09:42:53;;;;;;;6.90;6.30;;;7.00;99.90;;;;;;6203247;28;20477;-60
2022/11/27 09:46:02;;;;;;;8.53;6.27;;;7.10;99.90;;;;;;6203801;28;20492;-60
2022/11/27 09:49:09;;;;;;;7.77;6.70;;;7.20;99.90;;;;;;6202315;28;20475;-60
2022/11/27 09:52:20;;;;;;;6.93;5.27;;;7.20;99.90;;;;;;6201981;28;20430;-60
2022/11/27 09:55:28;;;;;;;7.23;5.50;;;7.30;99.90;;;;;;6200555;28;20932;-60
2022/11/27 09:58:38;;;;;;;5.90;5.30;;;7.40;99.90;;;;;;6201167;28;20811;-60
2022/11/27 10:01:41;;;;;;;7.13;6.43;;;7.40;99.90;;;;;;6201716;28;20811;-61
2022/11/27 10:04:53;;;;;;;7.20;6.50;;;7.50;99.90;;;;;;6201857;28;20796;-60
2022/11/27 10:08:30;;;;;;;7.47;6.47;;;7.60;99.90;;;;;;6201585;28;20548;-60
2022/11/27 10:11:44;;;;;;;7.47;6.77;;;7.70;99.90;;;;;;6201030;28;20960;-60
2022/11/27 10:15:02;;;;;;;9.00;7.57;;;7.80;99.90;;;;;;6200950;28;20481;-60
2022/11/27 10:18:13;;;;;;;6.60;5.97;;;8.00;99.90;;;;;;6200477;28;20832;-60
2022/11/27 10:21:21;;;;;;;6.20;5.60;;;8.10;99.90;;;;;;6160080;28;20997;-60
2022/11/27 10:24:35;;;;;;;9.87;5.43;;;8.20;99.90;;;;;;6153946;28;20510;-60
2022/11/27 10:27:45;;;;;;;9.50;6.40;;;8.40;99.90;;;;;;6153911;28;20482;-60
2022/11/27 10:30:54;;;;;;;7.53;6.50;;;8.50;99.90;;;;;;6152978;28;20483;-60
2022/11/27 10:34:01;;;;;;;6.23;5.70;;;8.60;99.90;;;;;;6153118;28;20471;-60
2022/11/27 10:37:08;;;;;;;6.17;5.30;;;8.70;99.90;;;;;;6153210;28;20538;-60
2022/11/27 10:40:20;;;;;;;8.50;6.77;;;8.80;99.90;;;;;;6152664;28;20467;-60
2022/11/27 10:43:25;;;;;;;6.80;6.10;;;8.90;99.90;;;;;;6144704;28;20822;-60
2022/11/27 10:46:33;;;;;;;6.20;5.30;;;9.20;99.80;;;;;;6153780;28;20489;-60
2022/11/27 10:49:39;;;;;;;5.67;5.17;;;9.50;99.00;;;;;;6153066;28;20466;-60
2022/11/27 10:52:50;;;;;;;5.80;5.20;;;9.70;98.70;;;;;;6153177;28;20959;-60
2022/11/27 10:56:33;;;;;;;5.87;5.37;;;9.90;98.50;;;;;;6152814;28;20479;-60
2022/11/27 10:59:40;;;;;;;6.70;4.30;;;10.40;97.50;;;;;;6139669;28;20478;-60
2022/11/27 11:02:46;;;;;;;5.60;5.07;;;13.70;95.40;;;;;;6155236;28;20470;-60
2022/11/27 11:05:57;;;;;;;5.73;5.20;;;18.80;81.50;;;;;;6177194;28;20489;-61
2022/11/27 11:09:24;;;;;;;4.33;3.93;;;23.20;53.90;;;;;;6176726;28;20332;-61
2022/11/27 11:12:27;;;;;;;5.27;4.87;;;25.70;39.70;;;;;;6176480;28;20721;-61
2022/11/27 11:15:31;;;;;;;5.30;4.80;;;26.30;35.50;;;;;;6176799;28;20617;-60
2022/11/27 11:18:43;;;;;;;6.17;4.80;;;25.90;34.10;;;;;;6175789;28;20237;-61
2022/11/27 11:21:46;;;;;;;5.20;4.13;;;27.30;32.20;;;;;;6176367;28;20237;-61
2022/11/27 11:24:51;;;;;;;5.00;4.60;;;29.10;30.30;;;;;;6176403;28;20678;-62
2022/11/27 11:27:55;;;;;;;4.67;4.27;;;30.80;27.40;;;;;;6176561;28;20241;-61
2022/11/27 11:31:06;;;;;;;4.40;4.00;;;31.60;25.90;;;;;;6176433;28;20704;-62
2022/11/27 11:34:22;;;;;;;5.38;4.35;;;32.70;23.90;;;;;;6176752;28;20276;-62
2022/11/27 11:37:27;;;;;;;10.60;7.55;;;32.90;23.60;;;;;;6176958;28;20229;-62
2022/11/27 11:40:33;;;;;;;6.32;5.78;;;34.30;22.60;;;;;;6177089;28;20237;-62
2022/11/27 11:43:37;;;;;;;11.20;10.40;;;34.80;21.50;;;;;;6177107;28;20234;-63
2022/11/27 11:46:40;;;;;;;7.63;7.00;;;35.60;20.70;;;;;;6172149;28;20233;-61
2022/11/27 11:49:46;;;;;;;5.25;4.85;;;36.20;19.90;;;;;;6176492;28;20243;-62
2022/11/27 11:52:57;;;;;;;6.15;4.18;;;36.80;19.50;;;;;;6179884;28;20569;-62
2022/11/27 11:56:09;;;;;;;4.30;3.95;;;36.80;19.70;;;;;;6182005;28;20563;-62
2022/11/27 11:59:23;;;;;;;9.05;8.13;;;35.70;19.40;;;;;;6186036;28;20308;-61
2022/11/27 12:02:47;;;;;;;4.15;3.85;;;36.10;19.30;;;;;;6181747;28;20234;-62
2022/11/27 12:06:14;;;;;;;4.82;4.35;;;36.60;18.40;;;;;;6168694;28;20237;-64
2022/11/27 12:09:44;;;;;;;4.82;4.35;;;35.90;18.90;;;;;;6174070;28;20242;-63
2022/11/27 12:12:57;;;;;;;5.10;4.60;;;36.10;18.60;;;;;;6186091;28;20240;-63
2022/11/27 12:16:07;;;;;;;5.10;4.60;;;36.60;18.40;;;;;;6196770;28;20232;-62
2022/11/27 12:19:33;;;;;;;4.55;3.92;;;37.00;18.10;;;;;;6212046;28;20231;-63
2022/11/27 12:22:55;;;;;;;5.22;4.75;;;36.60;18.10;;;;;;6198711;28;20239;-62
2022/11/27 12:26:07;;;;;;;5.25;4.80;;;35.20;19.40;;;;;;6184693;28;20234;-63
2022/11/27 12:29:23;;;;;;;4.68;4.28;;;34.50;19.30;;;;;;6178711;28;20234;-63
2022/11/27 12:33:04;;;;;;;5.15;4.40;;;34.00;19.80;;;;;;6178218;28;20221;-62
2022/11/27 12:36:19;;;;;;;4.80;4.38;;;34.30;19.60;;;;;;6176484;28;20234;-63
2022/11/27 12:39:32;;;;;;;4.40;4.03;;;34.50;19.70;;;;;;6179334;28;20236;-62
2022/11/27 12:42:48;;;;;;;4.55;4.13;;;34.60;19.30;;;;;;6179095;28;20222;-64
2022/11/27 12:45:58;;;;;;;4.78;4.35;;;34.90;19.20;;;;;;6179959;28;20555;-63
2022/11/27 12:49:05;;;;;;;3.67;3.38;;;34.60;19.30;;;;;;6179483;28;20421;-64
2022/11/27 12:52:14;;;;;;;4.25;3.92;;;34.80;19.30;;;;;;6175757;28;20269;-62
2022/11/27 12:55:25;;;;;;;4.75;4.18;;;35.10;18.90;;;;;;6178494;28;20197;-63
2022/11/27 12:58:32;;;;;;;4.05;3.05;;;35.10;18.60;;;;;;6179423;28;20356;-62
2022/11/27 13:01:41;;;;;;;3.67;3.38;;;34.60;18.90;;;;;;6179567;28;20342;-62
2022/11/27 13:04:47;;;;;;;4.75;3.35;;;34.30;18.90;;;;;;6179627;28;20237;-62
2022/11/27 13:07:55;;;;;;;6.40;3.72;;;33.50;19.50;;;;;;6179020;28;20244;-63
2022/11/27 13:11:05;;;;;;;3.88;3.45;;;33.90;19.60;;;;;;6178917;28;20288;-64
2022/11/27 13:14:14;;;;;;;3.97;3.67;;;34.10;19.20;;;;;;6179064;28;20244;-63
2022/11/27 13:17:17;;;;;;;4.15;3.80;;;33.20;19.60;;;;;;6179503;28;20240;-63
2022/11/27 13:20:28;;;;;;;3.83;3.45;;;33.30;19.70;;;;;;6179145;28;20677;-62
2022/11/27 13:23:31;;;;;;;4.20;3.80;;;33.50;19.80;;;;;;6179286;28;20541;-62
2022/11/27 13:26:44;;;;;;;3.83;3.42;;;33.80;19.60;;;;;;6179440;28;20245;-61
2022/11/27 13:29:53;;;;;;;3.63;3.33;;;33.70;19.50;;;;;;6179344;28;20249;-61
2022/11/27 13:33:00;;;;;;;6.20;4.50;;;31.80;20.70;;;;;;6179065;28;20234;-62
2022/11/27 13:36:07;;;;;;;4.30;3.90;;;32.10;20.60;;;;;;6179246;28;20229;-62
2022/11/27 13:39:23;;;;;;;3.47;3.17;;;32.10;20.90;;;;;;6178073;28;20229;-63
2022/11/27 13:42:28;;;;;;;3.57;3.30;;;32.00;20.40;;;;;;6178518;28;20256;-62
2022/11/27 13:45:36;;;;;;;4.57;3.60;;;31.20;20.30;;;;;;6177918;28;20233;-62
2022/11/27 13:48:42;;;;;;;3.80;3.50;;;30.70;20.70;;;;;;6176194;28;20234;-61
2022/11/27 13:51:45;;;;;;;3.40;3.07;;;30.80;21.00;;;;;;6177153;28;20221;-61
2022/11/27 13:54:56;;;;;;;4.73;3.80;;;30.70;20.80;;;;;;6177602;28;20292;-62
2022/11/27 13:58:02;;;;;;;4.77;4.30;;;30.20;21.30;;;;;;6168072;28;20229;-61
2022/11/27 14:01:14;;;;;;;3.33;3.10;;;29.60;22.00;;;;;;6176484;28;20233;-62
2022/11/27 14:04:18;;;;;;;5.43;3.53;;;28.00;22.90;;;;;;6176870;28;20229;-61
2022/11/27 14:07:23;;;;;;;5.30;3.17;;;26.50;24.50;;;;;;6200989;28;20229;-61
2022/11/27 14:10:28;;;;;;;4.17;3.77;;;24.60;26.10;;;;;;6200693;28;20245;-61
2022/11/27 14:13:39;;;;;;;7.23;2.83;;;22.50;28.10;;;;;;6200607;28;20226;-61
2022/11/27 14:16:42;;;;;;;3.30;2.53;;;21.20;29.60;;;;;;6199926;28;20328;-61
2022/11/27 14:19:58;;;;;;;2.73;2.53;;;19.90;31.00;;;;;;6200984;28;20229;-61
2022/11/27 14:23:01;;;;;;;3.20;2.90;;;18.90;32.80;;;;;;6200432;28;20539;-61
2022/11/27 14:26:22;;;;;;;3.47;2.97;;;17.60;35.00;;;;;;6201583;28;20234;-61
2022/11/27 14:29:30;;;;;;;5.20;2.60;;;16.20;37.30;;;;;;6200588;28;20797;-61
2022/11/27 14:32:36;;;;;;;5.03;3.50;;;15.20;39.50;;;;;;6200636;28;20485;-61
2022/11/27 14:35:40;;;;;;;3.90;3.20;;;14.40;41.30;;;;;;6200686;28;20476;-61
2022/11/27 14:38:47;;;;;;;4.40;3.47;;;13.50;43.60;;;;;;6212597;28;20482;-61
2022/11/27 14:42:01;;;;;;;4.13;3.73;;;13.00;45.30;;;;;;6211816;28;20487;-61
2022/11/27 14:45:12;;;;;;;4.30;3.90;;;12.60;46.90;;;;;;6208360;28;20476;-61
2022/11/27 14:48:21;;;;;;;4.97;3.53;;;12.30;48.10;;;;;;6209326;28;20489;-61
2022/11/27 14:51:26;;;;;;;4.70;3.90;;;11.90;49.60;;;;;;6209299;28;20554;-61
2022/11/27 14:54:34;;;;;;;3.30;2.90;;;11.60;50.70;;;;;;6212667;28;20473;-61
2022/11/27 14:57:38;;;;;;;4.50;3.83;;;11.50;51.70;;;;;;6211415;28;20476;-60
2022/11/27 15:00:52;;;;;;;4.60;3.27;;;11.30;52.80;;;;;;6199230;28;20563;-60
2022/11/27 15:03:57;;;;;;;3.90;3.60;;;11.10;54.10;;;;;;6176028;28;20577;-61
2022/11/27 15:07:04;;;;;;;5.33;3.70;;;11.00;55.30;;;;;;6176465;28;20485;-61
2022/11/27 15:10:23;;;;;;;5.37;4.13;;;10.80;56.30;;;;;;6175708;28;20486;-63
2022/11/27 15:13:29;;;;;;;4.70;3.80;;;10.70;57.50;;;;;;6176739;28;20465;-63
2022/11/27 15:16:34;;;;;;;7.00;4.80;;;10.50;58.70;;;;;;6177033;28;20474;-63
2022/11/27 15:19:38;;;;;;;6.30;5.07;;;10.40;59.80;;;;;;6177064;28;20484;-62
2022/11/27 15:22:48;;;;;;;5.93;5.13;;;10.30;61.10;;;;;;6176497;28;20481;-61
2022/11/27 15:26:04;;;;;;;10.93;5.33;;;10.20;62.80;;;;;;6178694;28;20821;-62
2022/11/27 15:29:33;;;;;;;8.00;5.33;;;10.10;64.20;;;;;;6181647;28;20526;-60
2022/11/27 15:32:50;;;;;;;5.87;5.27;;;10.00;66.30;;;;;;6181835;28;20495;-63
2022/11/27 15:35:55;;;;;;;7.70;5.93;;;9.90;68.80;;;;;;6181740;28;20584;-61
2022/11/27 15:39:17;;;;;;;6.57;5.50;;;9.80;70.10;;;;;;6181325;28;20478;-62
2022/11/27 15:42:22;;;;;;;6.00;5.40;;;9.70;71.60;;;;;;6181173;28;20482;-62
2022/11/27 15:45:30;;;;;;;7.70;5.37;;;9.70;73.00;;;;;;6181127;28;20555;-61
2022/11/27 15:48:35;;;;;;;12.10;9.10;;;9.50;74.80;;;;;;6180863;28;20505;-61
2022/11/27 15:51:40;;;;;;;8.50;6.60;;;9.40;76.00;;;;;;6181474;28;20470;-63
2022/11/27 15:54:43;;;;;;;12.47;9.70;;;9.40;77.20;;;;;;6180791;28;20535;-62
2022/11/27 15:57:47;;;;;;;16.70;10.00;;;9.30;78.70;;;;;;6180354;28;20465;-60
2022/11/27 16:00:52;;;;;;;16.10;9.87;;;9.20;79.80;;;;;;6180198;28;20493;-61
2022/11/27 16:03:58;;;;;;;11.50;8.57;;;9.10;81.20;;;;;;6180821;28;20485;-62
2022/11/27 16:07:02;;;;;;;10.00;7.60;;;9.00;82.50;;;;;;6180119;28;20478;-62
2022/11/27 16:10:08;;;;;;;7.83;7.03;;;8.90;83.40;;;;;;6180382;28;20541;-62
2022/11/27 16:13:12;;;;;;;11.37;7.87;;;8.80;84.90;;;;;;6180219;28;20434;-63
2022/11/27 16:16:15;;;;;;;10.20;8.17;;;8.60;86.20;;;;;;6180381;28;20456;-63
2022/11/27 16:19:20;;;;;;;12.80;9.63;;;8.60;87.70;;;;;;6180427;28;20518;-62
2022/11/27 16:22:24;;;;;;;10.70;9.30;;;8.50;89.10;;;;;;6180150;28;20532;-60